Time;durP1;ratioP1;P1;durP2;ratioP2;P2;SDS_P1;SDS_P2;PMS_P1;PMS_P2;Temp;Humidity;BMP_temperature;BMP_pressure;BME280_temperature;BME280_humidity;BME280_pressure;Samples;Min_cycle;Max_cycle;Signal;HPM_P1;HPM_P2
2021/05/28 00:00:01;17204.00;0.06;30.43;0.00;0.00;0.62;;;;;16.60;1.00;;;;;;2267296;61;1143;-82
2021/05/28 00:02:28;0.00;0.00;0.62;0.00;0.00;0.62;;;;;16.70;1.00;;;;;;2267356;61;1273;-82
2021/05/28 00:04:54;16456.00;0.05;29.13;0.00;0.00;0.62;;;;;16.80;1.00;;;;;;2267369;61;1159;-82
2021/05/28 00:07:21;0.00;0.00;0.62;0.00;0.00;0.62;;;;;16.80;1.00;;;;;;2267102;61;1124;-82
2021/05/28 00:09:48;0.00;0.00;0.62;0.00;0.00;0.62;;;;;16.60;1.00;;;;;;2267434;61;1266;-82
2021/05/28 00:12:14;0.00;0.00;0.62;0.00;0.00;0.62;;;;;16.50;1.00;;;;;;2267904;61;1374;-82
2021/05/28 00:14:41;0.00;0.00;0.62;0.00;0.00;0.62;;;;;16.80;1.00;;;;;;2268291;61;1107;-82
2021/05/28 00:17:08;0.00;0.00;0.62;0.00;0.00;0.62;;;;;16.80;1.00;;;;;;2267772;61;1999;-82
2021/05/28 00:19:35;0.00;0.00;0.62;0.00;0.00;0.62;;;;;16.80;1.00;;;;;;2269818;61;1102;-82
2021/05/28 00:22:01;0.00;0.00;0.62;0.00;0.00;0.62;;;;;16.90;1.00;;;;;;2275845;61;1410;-83
2021/05/28 00:24:29;9307.00;0.03;16.75;0.00;0.00;0.62;;;;;17.10;1.00;;;;;;2275873;61;1184;-82
2021/05/28 00:26:55;14043.00;0.05;24.95;0.00;0.00;0.62;;;;;17.10;1.00;;;;;;2271602;61;1600;-82
2021/05/28 00:29:22;0.00;0.00;0.62;0.00;0.00;0.62;;;;;17.00;1.00;;;;;;2268490;61;1128;-82
2021/05/28 00:31:48;0.00;0.00;0.62;0.00;0.00;0.62;;;;;17.00;1.00;;;;;;2275976;61;1376;-84
2021/05/28 00:34:15;11918.00;0.04;21.27;0.00;0.00;0.62;;;;;17.00;1.00;;;;;;2276280;61;1321;-84
2021/05/28 00:36:41;0.00;0.00;0.62;0.00;0.00;0.62;;;;;16.70;1.00;;;;;;2276329;61;1986;-83
2021/05/28 00:39:08;0.00;0.00;0.62;0.00;0.00;0.62;;;;;16.50;1.00;;;;;;2273889;61;1080;-82
2021/05/28 00:41:35;0.00;0.00;0.62;0.00;0.00;0.62;;;;;16.40;1.00;;;;;;2266307;61;1148;-82
2021/05/28 00:44:02;37285.00;0.12;65.19;0.00;0.00;0.62;;;;;16.80;1.00;;;;;;2265873;61;1289;-82
2021/05/28 00:46:29;0.00;0.00;0.62;0.00;0.00;0.62;;;;;16.80;1.00;;;;;;2266025;61;1128;-82
2021/05/28 00:48:55;0.00;0.00;0.62;0.00;0.00;0.62;;;;;16.90;1.00;;;;;;2266333;61;1142;-82
2021/05/28 00:51:22;0.00;0.00;0.62;0.00;0.00;0.62;;;;;17.00;1.00;;;;;;2266001;61;1125;-82
2021/05/28 00:53:49;806.00;0.00;2.02;0.00;0.00;0.62;;;;;16.90;1.00;;;;;;2265880;61;1278;-81
2021/05/28 00:56:17;24544.00;0.08;43.14;0.00;0.00;0.62;;;;;16.30;1.00;;;;;;2266324;61;2002;-82
2021/05/28 00:58:45;0.00;0.00;0.62;0.00;0.00;0.62;;;;;16.30;1.00;;;;;;2266571;61;1253;-82
2021/05/28 01:01:11;0.00;0.00;0.62;0.00;0.00;0.62;;;;;16.50;1.00;;;;;;2266259;61;1147;-82
2021/05/28 01:03:38;109363.00;0.36;189.73;42678.00;0.14;74.52;;;;;16.50;1.00;;;;;;2266235;61;1269;-82
2021/05/28 01:06:04;0.00;0.00;0.62;0.00;0.00;0.62;;;;;16.50;1.00;;;;;;2266449;61;1207;-82
2021/05/28 01:08:31;0.00;0.00;0.62;0.00;0.00;0.62;;;;;16.50;1.00;;;;;;2266598;61;1136;-83
2021/05/28 01:10:57;0.00;0.00;0.62;0.00;0.00;0.62;;;;;16.50;1.00;;;;;;2266266;61;1149;-82
2021/05/28 01:13:24;78665.00;0.26;136.73;0.00;0.00;0.62;;;;;16.70;1.00;;;;;;2266946;61;1299;-82
2021/05/28 01:15:51;22890.00;0.08;40.27;0.00;0.00;0.62;;;;;16.60;1.00;;;;;;2266826;61;1994;-82
2021/05/28 01:18:17;48333.00;0.16;84.30;0.00;0.00;0.62;;;;;16.50;1.00;;;;;;2266592;61;1196;-82
2021/05/28 01:20:44;0.00;0.00;0.62;0.00;0.00;0.62;;;;;16.50;1.00;;;;;;2266389;61;1181;-82
2021/05/28 01:23:11;38348.00;0.13;67.03;0.00;0.00;0.62;;;;;16.60;1.00;;;;;;2266160;61;1359;-82
2021/05/28 01:25:38;28280.00;0.09;49.61;0.00;0.00;0.62;;;;;16.60;1.00;;;;;;2266216;61;1231;-82
2021/05/28 01:28:04;235243.00;0.78;406.57;81659.00;0.27;141.90;;;;;16.70;1.00;;;;;;2266136;61;1247;-82
2021/05/28 01:30:31;0.00;0.00;0.62;0.00;0.00;0.62;;;;;16.60;1.00;;;;;;2266279;61;1157;-82
2021/05/28 01:32:57;2656.00;0.01;5.22;0.00;0.00;0.62;;;;;16.50;1.00;;;;;;2267207;61;1272;-82
2021/05/28 01:35:24;17864.00;0.06;31.57;0.00;0.00;0.62;;;;;16.60;1.00;;;;;;2266948;61;2016;-82
2021/05/28 01:37:51;52101.00;0.17;90.82;0.00;0.00;0.62;;;;;16.60;1.00;;;;;;2267146;61;1175;-82
2021/05/28 01:40:21;31402.00;0.10;55.01;0.00;0.00;0.62;;;;;16.50;1.00;;;;;;2267229;61;1248;-82
2021/05/28 01:42:49;0.00;0.00;0.62;0.00;0.00;0.62;;;;;16.40;1.00;;;;;;2266568;61;1393;-82
2021/05/28 01:45:18;0.00;0.00;0.62;0.00;0.00;0.62;;;;;16.20;1.00;;;;;;2266876;61;1114;-82
2021/05/28 01:47:45;24882.00;0.08;43.72;0.00;0.00;0.62;;;;;16.00;1.00;;;;;;2266865;61;1121;-82
2021/05/28 01:50:13;99744.00;0.33;173.13;0.00;0.00;0.62;;;;;16.20;1.00;;;;;;2266898;61;1192;-84
2021/05/28 01:52:40;0.00;0.00;0.62;0.00;0.00;0.62;;;;;16.30;1.00;;;;;;2267099;61;1356;-84
2021/05/28 01:55:09;0.00;0.00;0.62;0.00;0.00;0.62;;;;;16.40;1.00;;;;;;2266964;61;1935;-82
2021/05/28 01:57:37;94752.00;0.32;164.51;18655.00;0.06;32.94;;;;;16.50;1.00;;;;;;2267043;61;1156;-81
2021/05/28 02:00:05;0.00;0.00;0.62;0.00;0.00;0.62;;;;;16.40;1.00;;;;;;2267376;61;1137;-82
2021/05/28 02:02:32;57223.00;0.19;99.68;0.00;0.00;0.62;;;;;16.40;1.00;;;;;;2266964;61;1383;-82
2021/05/28 02:04:58;0.00;0.00;0.62;0.00;0.00;0.62;;;;;16.60;1.00;;;;;;2266895;61;1140;-82
2021/05/28 02:07:25;0.00;0.00;0.62;0.00;0.00;0.62;;;;;16.40;1.00;;;;;;2276481;61;1120;-84
2021/05/28 02:09:51;0.00;0.00;0.62;0.00;0.00;0.62;;;;;16.30;1.00;;;;;;2276313;61;1071;-82
2021/05/28 02:12:18;184907.00;0.62;319.94;0.00;0.00;0.62;;;;;16.30;1.00;;;;;;2269897;61;1677;-82
2021/05/28 02:14:45;10411.00;0.03;18.66;0.00;0.00;0.62;;;;;16.60;1.00;;;;;;2273530;61;2101;-82
2021/05/28 02:17:12;0.00;0.00;0.62;0.00;0.00;0.62;;;;;16.50;1.00;;;;;;2272780;61;1947;-82
2021/05/28 02:19:38;0.00;0.00;0.62;0.00;0.00;0.62;;;;;16.50;1.00;;;;;;2272924;61;1152;-82
2021/05/28 02:22:10;172382.00;0.57;298.37;22118.00;0.07;38.94;;;;;16.50;1.00;;;;;;2273008;61;1984;-82
2021/05/28 02:24:36;0.00;0.00;0.62;0.00;0.00;0.62;;;;;16.60;1.00;;;;;;2269684;61;1145;-82
2021/05/28 02:27:03;58787.00;0.20;102.38;0.00;0.00;0.62;;;;;16.70;1.00;;;;;;2269380;61;1152;-82
2021/05/28 02:29:29;5683.00;0.02;10.47;0.00;0.00;0.62;;;;;16.70;1.00;;;;;;2269356;61;1151;-81
2021/05/28 02:31:57;0.00;0.00;0.62;0.00;0.00;0.62;;;;;16.90;1.00;;;;;;2268719;61;1372;-82
2021/05/28 02:34:23;22031.00;0.07;38.79;0.00;0.00;0.62;;;;;17.00;1.00;;;;;;2269003;61;1170;-82
2021/05/28 02:36:50;0.00;0.00;0.62;0.00;0.00;0.62;;;;;17.00;1.00;;;;;;2269245;61;2001;-83
2021/05/28 02:39:16;0.00;0.00;0.62;0.00;0.00;0.62;;;;;16.70;1.00;;;;;;2269287;61;1317;-83
2021/05/28 02:41:42;57657.00;0.19;100.43;0.00;0.00;0.62;;;;;16.70;1.00;;;;;;2269227;61;1390;-84
2021/05/28 02:44:09;0.00;0.00;0.62;0.00;0.00;0.62;;;;;16.70;1.00;;;;;;2268941;61;1248;-82
2021/05/28 02:46:35;269722.00;0.90;465.87;24351.00;0.08;42.80;;;;;16.60;1.00;;;;;;2268397;61;1069;-82
2021/05/28 02:49:03;0.00;0.00;0.62;0.00;0.00;0.62;;;;;16.50;1.00;;;;;;2267393;61;1124;-82
2021/05/28 02:51:30;191804.00;0.64;331.81;58640.00;0.20;102.13;;;;;16.40;1.00;;;;;;2267157;61;1183;-83
2021/05/28 02:53:56;65402.00;0.22;113.81;0.00;0.00;0.62;;;;;16.20;1.00;;;;;;2266924;61;1355;-83
2021/05/28 02:56:23;0.00;0.00;0.62;0.00;0.00;0.62;;;;;16.00;1.00;;;;;;2266831;61;1990;-83
2021/05/28 02:58:49;0.00;0.00;0.62;0.00;0.00;0.62;;;;;16.00;1.00;;;;;;2266628;61;1185;-84
2021/05/28 03:01:15;71351.00;0.24;124.09;0.00;0.00;0.62;;;;;16.00;1.00;;;;;;2267068;61;1144;-83
2021/05/28 03:03:42;42428.00;0.14;74.09;0.00;0.00;0.62;;;;;16.30;1.00;;;;;;2267042;61;1379;-83
2021/05/28 03:06:09;13291.00;0.04;23.65;0.00;0.00;0.62;;;;;16.80;1.00;;;;;;2266930;61;1156;-83
2021/05/28 03:08:35;0.00;0.00;0.62;0.00;0.00;0.62;;;;;16.80;1.00;;;;;;2266731;61;1182;-83
2021/05/28 03:11:02;93012.00;0.31;161.51;26957.00;0.09;47.32;;;;;16.70;1.00;;;;;;2266473;61;1089;-84
2021/05/28 03:13:28;0.00;0.00;0.62;0.00;0.00;0.62;;;;;16.70;1.00;;;;;;2266493;61;1281;-83
2021/05/28 03:15:55;57980.00;0.19;100.98;0.00;0.00;0.62;;;;;16.50;1.00;;;;;;2266980;61;1946;-83
2021/05/28 03:18:23;0.00;0.00;0.62;0.00;0.00;0.62;;;;;16.40;1.00;;;;;;2266284;61;1180;-83
2021/05/28 03:20:56;0.00;0.00;0.62;0.00;0.00;0.62;;;;;16.00;1.00;;;;;;2266706;61;1210;-83
2021/05/28 03:23:23;0.00;0.00;0.62;0.00;0.00;0.62;;;;;16.00;1.00;;;;;;2266597;61;1363;-83
2021/05/28 03:25:50;112704.00;0.38;195.50;46478.00;0.15;81.09;;;;;16.30;1.00;;;;;;2266752;61;1603;-83
2021/05/28 03:28:16;0.00;0.00;0.62;0.00;0.00;0.62;;;;;16.10;1.00;;;;;;2266673;61;1746;-83
2021/05/28 03:30:42;0.00;0.00;0.62;0.00;0.00;0.62;;;;;16.20;1.00;;;;;;2266892;61;1177;-83
2021/05/28 03:33:09;0.00;0.00;0.62;0.00;0.00;0.62;;;;;16.20;1.00;;;;;;2266786;61;1295;-83
2021/05/28 03:35:35;0.00;0.00;0.62;0.00;0.00;0.62;;;;;16.30;1.00;;;;;;2266776;61;2021;-83
2021/05/28 03:38:02;0.00;0.00;0.62;0.00;0.00;0.62;;;;;16.30;1.00;;;;;;2266874;61;1117;-83
2021/05/28 03:40:29;19174.00;0.06;33.84;0.00;0.00;0.62;;;;;16.70;1.00;;;;;;2267033;61;1159;-83
2021/05/28 03:42:56;0.00;0.00;0.62;0.00;0.00;0.62;;;;;17.00;1.00;;;;;;2266997;61;1364;-83
2021/05/28 03:45:22;0.00;0.00;0.62;0.00;0.00;0.62;;;;;16.90;1.00;;;;;;2267451;61;1152;-83
2021/05/28 03:47:49;0.00;0.00;0.62;0.00;0.00;0.62;;;;;16.80;1.00;;;;;;2267032;61;1115;-83
2021/05/28 03:50:15;0.00;0.00;0.62;0.00;0.00;0.62;;;;;16.40;1.00;;;;;;2266663;61;1132;-83
2021/05/28 03:52:41;147616.00;0.49;255.70;24089.00;0.08;42.35;;;;;16.10;1.00;;;;;;2267366;61;1692;-83
2021/05/28 03:55:09;52271.00;0.17;91.11;0.00;0.00;0.62;;;;;16.70;1.00;;;;;;2266543;61;1180;-83
2021/05/28 03:57:36;0.00;0.00;0.62;0.00;0.00;0.62;;;;;16.80;1.00;;;;;;2266221;61;1167;-81
2021/05/28 04:00:04;0.00;0.00;0.62;0.00;0.00;0.62;;;;;16.70;1.00;;;;;;2266746;61;1132;-82
2021/05/28 04:02:31;0.00;0.00;0.62;0.00;0.00;0.62;;;;;16.50;1.00;;;;;;2266169;61;1301;-82
2021/05/28 04:04:57;0.00;0.00;0.62;0.00;0.00;0.62;;;;;16.10;1.00;;;;;;2266210;61;1171;-82
2021/05/28 04:07:25;0.00;0.00;0.62;0.00;0.00;0.62;;;;;15.70;1.00;;;;;;2266409;61;1112;-81
2021/05/28 04:09:51;0.00;0.00;0.62;0.00;0.00;0.62;;;;;15.50;1.00;;;;;;2266135;61;1136;-81
2021/05/28 04:12:18;0.00;0.00;0.62;0.00;0.00;0.62;;;;;15.20;1.00;;;;;;2265850;61;1273;-81
2021/05/28 04:14:45;16173.00;0.05;28.64;0.00;0.00;0.62;;;;;14.80;1.00;;;;;;2266054;61;1235;-81
2021/05/28 04:17:11;57764.00;0.19;100.61;0.00;0.00;0.62;;;;;14.90;1.00;;;;;;2266260;61;2014;-82
2021/05/28 04:19:38;69417.00;0.23;120.75;0.00;0.00;0.62;;;;;15.00;1.00;;;;;;2266167;61;1191;-82
2021/05/28 04:22:04;0.00;0.00;0.62;0.00;0.00;0.62;;;;;15.00;1.00;;;;;;2266020;61;1291;-83
2021/05/28 04:24:30;0.00;0.00;0.62;0.00;0.00;0.62;;;;;15.40;1.00;;;;;;2266375;61;1093;-82
2021/05/28 04:26:57;5034.00;0.02;9.34;0.00;0.00;0.62;;;;;15.60;1.00;;;;;;2265839;61;1334;-83
2021/05/28 04:29:23;0.00;0.00;0.62;0.00;0.00;0.62;;;;;16.00;1.00;;;;;;2266804;61;1108;-82
2021/05/28 04:31:51;0.00;0.00;0.62;0.00;0.00;0.62;;;;;16.30;1.00;;;;;;2266393;61;1390;-82
2021/05/28 04:34:17;0.00;0.00;0.62;0.00;0.00;0.62;;;;;16.50;1.00;;;;;;2266530;61;1168;-81
2021/05/28 04:36:43;48765.00;0.16;85.05;0.00;0.00;0.62;;;;;16.70;1.00;;;;;;2266304;61;2024;-82
2021/05/28 04:39:10;0.00;0.00;0.62;0.00;0.00;0.62;;;;;16.90;1.00;;;;;;2266153;61;1196;-82
2021/05/28 04:41:36;27152.00;0.09;47.65;0.00;0.00;0.62;;;;;16.80;1.00;;;;;;2266642;61;1175;-81
2021/05/28 04:44:03;24142.00;0.08;42.44;0.00;0.00;0.62;;;;;16.70;1.00;;;;;;2266067;61;1244;-83
2021/05/28 04:46:30;60150.00;0.20;104.74;14314.00;0.05;25.42;;;;;16.80;1.00;;;;;;2266293;61;1149;-83
2021/05/28 04:48:57;38199.00;0.13;66.77;0.00;0.00;0.62;;;;;16.90;1.00;;;;;;2266930;61;1100;-84
2021/05/28 04:51:24;128080.00;0.43;222.02;45533.00;0.15;79.46;;;;;16.90;1.00;;;;;;2266103;61;1204;-83
2021/05/28 04:53:50;0.00;0.00;0.62;0.00;0.00;0.62;;;;;16.80;1.00;;;;;;2266434;61;1392;-83
2021/05/28 04:56:17;38753.00;0.13;67.73;0.00;0.00;0.62;;;;;16.60;1.00;;;;;;2276159;61;1985;-84
2021/05/28 04:58:44;0.00;0.00;0.62;0.00;0.00;0.62;;;;;16.80;1.00;;;;;;2274666;61;1102;-83
2021/05/28 05:01:10;0.00;0.00;0.62;0.00;0.00;0.62;;;;;16.80;1.00;;;;;;2266910;61;1118;-84
2021/05/28 05:03:37;15130.00;0.05;26.84;0.00;0.00;0.62;;;;;17.00;1.00;;;;;;2265783;61;1407;-82
2021/05/28 05:06:04;31229.00;0.10;54.71;0.00;0.00;0.62;;;;;17.10;1.00;;;;;;2266333;61;1229;-82
2021/05/28 05:08:31;0.00;0.00;0.62;0.00;0.00;0.62;;;;;17.10;1.00;;;;;;2267348;61;1128;-83
2021/05/28 05:10:58;0.00;0.00;0.62;0.00;0.00;0.62;;;;;17.30;1.00;;;;;;2266993;61;1145;-83
2021/05/28 05:13:24;0.00;0.00;0.62;0.00;0.00;0.62;;;;;17.50;1.00;;;;;;2267442;61;1359;-83
2021/05/28 05:15:51;6419.00;0.02;11.74;0.00;0.00;0.62;;;;;17.60;1.00;;;;;;2267367;61;2032;-83
2021/05/28 05:18:18;0.00;0.00;0.62;0.00;0.00;0.62;;;;;17.70;1.00;;;;;;2267928;61;1187;-83
2021/05/28 05:20:44;0.00;0.00;0.62;0.00;0.00;0.62;;;;;17.90;1.00;;;;;;2267826;61;1088;-82
2021/05/28 05:23:11;0.00;0.00;0.62;0.00;0.00;0.62;;;;;18.20;1.00;;;;;;2267700;61;1354;-82
2021/05/28 05:25:38;23441.00;0.08;41.23;0.00;0.00;0.62;;;;;18.30;1.00;;;;;;2267729;61;1239;-82
2021/05/28 05:28:04;0.00;0.00;0.62;0.00;0.00;0.62;;;;;18.30;1.00;;;;;;2268536;61;1175;-83
2021/05/28 05:30:31;0.00;0.00;0.62;0.00;0.00;0.62;;;;;18.50;1.00;;;;;;2268597;61;1156;-82
2021/05/28 05:32:58;0.00;0.00;0.62;0.00;0.00;0.62;;;;;18.70;1.00;;;;;;2267835;61;1366;-82
2021/05/28 05:35:24;0.00;0.00;0.62;0.00;0.00;0.62;;;;;18.90;1.00;;;;;;2268315;61;1998;-82
2021/05/28 05:37:51;11223.00;0.04;20.07;0.00;0.00;0.62;;;;;18.90;1.00;;;;;;2269581;61;1083;-82
2021/05/28 05:40:18;0.00;0.00;0.62;0.00;0.00;0.62;;;;;19.10;1.00;;;;;;2269164;61;1143;-82
2021/05/28 05:42:45;1992.00;0.01;4.07;0.00;0.00;0.62;;;;;19.30;1.00;;;;;;2269177;61;1296;-82
2021/05/28 05:45:14;104733.00;0.35;181.74;0.00;0.00;0.62;;;;;19.90;1.00;;;;;;2268146;61;1280;-82
2021/05/28 05:47:42;397644.00;1.33;685.75;128406.00;0.43;222.58;;;;;21.00;1.00;;;;;;2273409;61;1106;-83
2021/05/28 05:50:10;25117.00;0.08;44.13;0.00;0.00;0.62;;;;;22.20;1.00;;;;;;2275851;61;1711;-82
2021/05/28 05:52:36;29817.00;0.10;52.27;0.00;0.00;0.62;;;;;22.50;1.00;;;;;;2275480;61;1440;-85
2021/05/28 05:55:04;0.00;0.00;0.62;0.00;0.00;0.62;;;;;23.20;1.00;;;;;;2269489;61;1101;-83
2021/05/28 05:57:31;0.00;0.00;0.62;0.00;0.00;0.62;;;;;23.90;1.00;;;;;;2272073;61;2030;-85
2021/05/28 05:59:58;0.00;0.00;0.62;0.00;0.00;0.62;;;;;24.40;1.00;;;;;;2276680;61;1126;-84
2021/05/28 06:02:27;0.00;0.00;0.62;0.00;0.00;0.62;;;;;25.10;1.00;;;;;;2276593;61;1407;-85
2021/05/28 06:04:53;0.00;0.00;0.62;0.00;0.00;0.62;;;;;25.60;1.00;;;;;;2276744;61;1783;-85
2021/05/28 06:07:19;0.00;0.00;0.62;0.00;0.00;0.62;;;;;26.20;1.00;;;;;;2273904;61;1186;-83
2021/05/28 06:09:46;16748.00;0.06;29.64;0.00;0.00;0.62;;;;;26.50;1.00;;;;;;2268365;61;1148;-83
2021/05/28 06:12:12;0.00;0.00;0.62;0.00;0.00;0.62;;;;;26.70;1.00;;;;;;2267661;61;1269;-84
2021/05/28 06:14:40;116482.00;0.39;202.01;51025.00;0.17;88.96;;;;;27.30;1.00;;;;;;2268076;61;1545;-83
2021/05/28 06:17:06;198411.00;0.66;343.19;66025.00;0.22;114.89;;;;;26.90;1.00;;;;;;2268156;61;1941;-83
2021/05/28 06:19:32;0.00;0.00;0.62;0.00;0.00;0.62;;;;;28.20;1.00;;;;;;2268236;61;1223;-83
2021/05/28 06:21:59;0.00;0.00;0.62;0.00;0.00;0.62;;;;;27.70;1.00;;;;;;2267656;61;1370;-83
2021/05/28 06:24:25;94570.00;0.32;164.20;29286.00;0.10;51.35;;;;;28.00;1.00;;;;;;2268016;61;1093;-83
2021/05/28 06:26:52;118659.00;0.40;205.77;53251.00;0.18;92.81;;;;;27.10;1.00;;;;;;2268099;61;1134;-83
2021/05/28 06:29:18;99585.00;0.33;172.86;0.00;0.00;0.62;;;;;26.20;1.00;;;;;;2268218;61;1112;-83
2021/05/28 06:31:46;0.00;0.00;0.62;0.00;0.00;0.62;;;;;25.10;1.00;;;;;;2269386;61;1379;-82
2021/05/28 06:34:13;112637.00;0.38;195.38;29827.00;0.10;52.28;;;;;23.70;1.00;;;;;;2269286;61;1116;-83
2021/05/28 06:36:39;0.00;0.00;0.62;0.00;0.00;0.62;;;;;23.00;1.00;;;;;;2268890;61;1909;-82
2021/05/28 06:39:08;105287.00;0.35;182.70;0.00;0.00;0.62;;;;;22.30;1.00;;;;;;2267818;61;1116;-82
2021/05/28 06:41:34;0.00;0.00;0.62;0.00;0.00;0.62;;;;;21.90;1.00;;;;;;2267505;61;1228;-82
2021/05/28 06:44:01;0.00;0.00;0.62;0.00;0.00;0.62;;;;;22.40;1.00;;;;;;2267005;61;1349;-83
2021/05/28 06:46:27;0.00;0.00;0.62;0.00;0.00;0.62;;;;;22.00;1.00;;;;;;2267314;61;1070;-82
2021/05/28 06:48:56;185148.00;0.62;320.35;52173.00;0.17;90.94;;;;;21.90;1.00;;;;;;2267211;61;1172;-82
2021/05/28 06:51:23;137380.00;0.46;238.05;38195.00;0.13;66.77;;;;;22.80;1.00;;;;;;2270739;61;1101;-83
2021/05/28 06:53:49;47685.00;0.16;83.18;0.00;0.00;0.62;;;;;24.10;1.00;;;;;;2270715;61;1258;-83
2021/05/28 06:56:16;35936.00;0.12;62.86;0.00;0.00;0.62;;;;;24.90;1.00;;;;;;2268502;61;1939;-82
2021/05/28 06:58:47;0.00;0.00;0.62;0.00;0.00;0.62;;;;;25.80;1.00;;;;;;2267593;61;1135;-83
2021/05/28 07:01:14;0.00;0.00;0.62;0.00;0.00;0.62;;;;;26.20;1.00;;;;;;2267876;61;1115;-83
2021/05/28 07:03:40;17480.00;0.06;30.91;0.00;0.00;0.62;;;;;27.90;1.00;;;;;;2267423;61;1325;-83
2021/05/28 07:06:08;32823.00;0.11;57.47;0.00;0.00;0.62;;;;;27.50;1.00;;;;;;2267089;61;984;-83
2021/05/28 07:08:35;0.00;0.00;0.62;0.00;0.00;0.62;;;;;26.60;1.00;;;;;;2267243;61;1527;-83
2021/05/28 07:11:02;0.00;0.00;0.62;0.00;0.00;0.62;;;;;25.60;1.00;;;;;;2266466;61;1113;-80
2021/05/28 07:13:29;40734.00;0.14;71.16;0.00;0.00;0.62;;;;;24.10;1.00;;;;;;2265695;61;1293;-81
2021/05/28 07:15:55;58081.00;0.19;101.16;0.00;0.00;0.62;;;;;23.70;1.00;;;;;;2265260;61;2020;-81
2021/05/28 07:18:22;218627.00;0.73;377.98;43816.00;0.15;76.49;;;;;24.00;1.00;;;;;;2265286;61;1228;-80
2021/05/28 07:20:48;0.00;0.00;0.62;0.00;0.00;0.62;;;;;23.80;1.00;;;;;;2265222;61;1163;-81
2021/05/28 07:23:19;0.00;0.00;0.62;0.00;0.00;0.62;;;;;23.10;1.00;;;;;;2267622;61;1291;-83
2021/05/28 07:25:45;89184.00;0.30;154.90;23445.00;0.08;41.24;;;;;22.80;1.00;;;;;;2260184;61;1101;-83
2021/05/28 07:28:12;49129.00;0.16;85.68;0.00;0.00;0.62;;;;;22.50;1.00;;;;;;2261727;61;1229;-83
2021/05/28 07:30:38;0.00;0.00;0.62;0.00;0.00;0.62;;;;;22.40;1.00;;;;;;2263383;61;1189;-83
2021/05/28 07:33:05;35759.00;0.12;62.55;0.00;0.00;0.62;;;;;23.60;1.00;;;;;;2263019;61;1328;-83
2021/05/28 07:35:31;0.00;0.00;0.62;0.00;0.00;0.62;;;;;24.60;1.00;;;;;;2270042;61;1130;-84
2021/05/28 07:37:58;55186.00;0.18;96.15;0.00;0.00;0.62;;;;;24.60;1.00;;;;;;2262354;61;1164;-83
2021/05/28 07:40:25;0.00;0.00;0.62;0.00;0.00;0.62;;;;;24.20;1.00;;;;;;2261705;61;1193;-83
2021/05/28 07:42:51;0.00;0.00;0.62;0.00;0.00;0.62;;;;;23.30;1.00;;;;;;2271008;61;1295;-84
2021/05/28 07:45:18;25643.00;0.09;45.04;0.00;0.00;0.62;;;;;23.00;1.00;;;;;;2276251;61;1184;-83
2021/05/28 07:47:44;0.00;0.00;0.62;0.00;0.00;0.62;;;;;22.90;1.00;;;;;;2261562;61;1113;-83
2021/05/28 07:50:11;0.00;0.00;0.62;0.00;0.00;0.62;;;;;23.00;1.00;;;;;;2266565;61;1139;-83
2021/05/28 07:52:38;0.00;0.00;0.62;0.00;0.00;0.62;;;;;22.70;1.00;;;;;;2256102;61;1435;-83
2021/05/28 07:55:05;0.00;0.00;0.62;0.00;0.00;0.62;;;;;22.80;1.00;;;;;;2256119;61;1105;-83
2021/05/28 07:57:33;31253.00;0.10;54.75;0.00;0.00;0.62;;;;;22.90;1.00;;;;;;2259387;61;2034;-83
2021/05/28 07:59:59;11776.00;0.04;21.03;0.00;0.00;0.62;;;;;22.70;1.00;;;;;;2260053;61;1259;-83
2021/05/28 08:02:25;92941.00;0.31;161.39;27456.00;0.09;48.18;;;;;23.00;1.00;;;;;;2260123;61;1418;-83
2021/05/28 08:04:54;0.00;0.00;0.62;0.00;0.00;0.62;;;;;22.90;1.00;;;;;;2260341;61;1248;-83
2021/05/28 08:07:20;0.00;0.00;0.62;0.00;0.00;0.62;;;;;23.10;1.00;;;;;;2268069;61;1235;-84
2021/05/28 08:09:48;40950.00;0.14;71.53;0.00;0.00;0.62;;;;;23.50;1.00;;;;;;2260532;61;1236;-84
2021/05/28 08:12:15;134214.00;0.45;232.60;0.00;0.00;0.62;;;;;24.20;1.00;;;;;;2261069;61;1305;-81
2021/05/28 08:14:42;10032.00;0.03;18.00;0.00;0.00;0.62;;;;;25.40;1.00;;;;;;2270223;61;1154;-81
2021/05/28 08:17:09;0.00;0.00;0.62;0.00;0.00;0.62;;;;;26.30;1.00;;;;;;2261484;61;2028;-84
2021/05/28 08:19:35;0.00;0.00;0.62;0.00;0.00;0.62;;;;;26.10;1.00;;;;;;2268310;61;1568;-84
2021/05/28 08:22:02;42503.00;0.14;74.22;0.00;0.00;0.62;;;;;25.90;1.00;;;;;;2269472;61;1749;-83
2021/05/28 08:24:28;252587.00;0.84;436.40;0.00;0.00;0.62;;;;;25.70;1.00;;;;;;2262126;61;1164;-82
2021/05/28 08:26:55;148.00;0.00;0.88;0.00;0.00;0.62;;;;;24.50;1.00;;;;;;2262818;61;1196;-82
2021/05/28 08:29:21;68692.00;0.23;119.50;0.00;0.00;0.62;;;;;23.20;1.00;;;;;;2269177;61;1108;-82
2021/05/28 08:31:49;14508.00;0.05;25.76;0.00;0.00;0.62;;;;;23.20;1.00;;;;;;2262219;61;1309;-83
2021/05/28 08:34:15;0.00;0.00;0.62;0.00;0.00;0.62;;;;;22.90;1.00;;;;;;2264155;61;1290;-83
2021/05/28 08:36:42;82788.00;0.28;143.85;0.00;0.00;0.62;;;;;22.90;1.00;;;;;;2254705;61;2001;-83
2021/05/28 08:39:08;73897.00;0.25;128.49;0.00;0.00;0.62;;;;;23.10;1.00;;;;;;2253261;61;1547;-85
2021/05/28 08:41:35;56632.00;0.19;98.65;0.00;0.00;0.62;;;;;23.00;1.00;;;;;;2254759;61;1162;-84
2021/05/28 08:44:03;178164.00;0.59;308.33;0.00;0.00;0.62;;;;;22.90;1.00;;;;;;2253163;61;1631;-83
2021/05/28 08:46:30;285981.00;0.95;493.82;56388.00;0.19;98.23;;;;;22.40;1.00;;;;;;2253246;61;1168;-85
2021/05/28 08:48:58;390257.00;1.30;673.06;75034.00;0.25;130.46;;;;;21.80;1.00;;;;;;2249767;61;1601;-82
2021/05/28 08:51:24;164039.00;0.55;284.00;0.00;0.00;0.62;;;;;22.20;1.00;;;;;;2251790;61;1188;-85
2021/05/28 08:53:51;195181.00;0.65;337.63;32166.00;0.11;56.33;;;;;21.90;1.00;;;;;;2261123;61;1754;-85
2021/05/28 08:56:17;0.00;0.00;0.62;0.00;0.00;0.62;;;;;22.40;1.00;;;;;;2272428;61;1931;-85
2021/05/28 08:58:44;166332.00;0.55;287.95;0.00;0.00;0.62;;;;;22.70;1.00;;;;;;2271625;61;1618;-83
2021/05/28 09:01:10;72436.00;0.24;125.97;0.00;0.00;0.62;;;;;22.80;1.00;;;;;;2272314;61;1205;-83
2021/05/28 09:03:38;420128.00;1.40;724.41;44488.00;0.15;77.65;;;;;22.60;1.00;;;;;;2272426;61;1605;-83
2021/05/28 09:06:17;206847.00;0.69;357.71;0.00;0.00;0.62;;;;;22.60;1.00;;;;;;2272264;61;1670;-84
2021/05/28 09:08:45;77580.00;0.26;134.86;0.00;0.00;0.62;;;;;21.50;1.00;;;;;;2269446;61;1350;-83
2021/05/28 09:11:14;261784.00;0.87;452.22;0.00;0.00;0.62;;;;;20.50;1.00;;;;;;2273200;61;1628;-84
2021/05/28 09:13:46;100697.00;0.34;174.77;0.00;0.00;0.62;;;;;19.90;1.00;;;;;;2271337;61;1375;-83
2021/05/28 09:16:15;150260.00;0.50;260.26;0.00;0.00;0.62;;;;;20.30;1.00;;;;;;2272724;61;1916;-83
2021/05/28 09:18:47;114828.00;0.38;199.16;0.00;0.00;0.62;;;;;20.60;1.00;;;;;;2271740;61;1653;-82
2021/05/28 09:21:21;0.00;0.00;0.62;0.00;0.00;0.62;;;;;20.60;1.00;;;;;;2267759;61;1193;-82
2021/05/28 09:23:48;29102.00;0.10;51.03;0.00;0.00;0.62;;;;;20.60;1.00;;;;;;2268426;61;1405;-81
2021/05/28 09:26:14;0.00;0.00;0.62;0.00;0.00;0.62;;;;;20.90;1.00;;;;;;2267446;61;1227;-83
2021/05/28 09:28:43;24822.00;0.08;43.62;0.00;0.00;0.62;;;;;21.40;1.00;;;;;;2268098;61;1568;-80
2021/05/28 09:31:14;22729.00;0.08;40.00;0.00;0.00;0.62;;;;;21.60;1.00;;;;;;2267263;61;1179;-81
2021/05/28 09:33:43;35653.00;0.12;62.37;0.00;0.00;0.62;;;;;21.50;1.00;;;;;;2267649;61;1507;-81
2021/05/28 09:36:13;46569.00;0.16;81.25;0.00;0.00;0.62;;;;;21.80;1.00;;;;;;2267348;61;1933;-81
2021/05/28 09:38:53;0.00;0.00;0.62;0.00;0.00;0.62;;;;;21.70;1.00;;;;;;2267242;61;1159;-81
2021/05/28 09:41:38;0.00;0.00;0.62;0.00;0.00;0.62;;;;;21.50;1.00;;;;;;2267092;61;1124;-82
2021/05/28 09:44:09;7656.00;0.03;13.89;0.00;0.00;0.62;;;;;20.80;1.00;;;;;;2267239;61;1527;-82
2021/05/28 09:46:36;95432.00;0.32;165.69;0.00;0.00;0.62;;;;;20.10;1.00;;;;;;2267109;61;1105;-82
2021/05/28 09:49:10;12625.00;0.04;22.50;0.00;0.00;0.62;;;;;20.40;1.00;;;;;;2267318;61;1093;-82
2021/05/28 09:51:37;34320.00;0.11;60.06;0.00;0.00;0.62;;;;;20.40;1.00;;;;;;2266618;61;1219;-82
2021/05/28 09:54:15;363670.00;1.21;627.36;77254.00;0.26;134.29;;;;;20.20;1.00;;;;;;2267062;61;1347;-82
2021/05/28 09:56:43;392195.00;1.31;676.39;131797.00;0.44;228.43;;;;;20.00;1.00;;;;;;2267153;61;2016;-82
2021/05/28 09:59:10;385200.00;1.28;664.36;86556.00;0.29;150.36;;;;;19.80;1.00;;;;;;2266571;61;1168;-82
2021/05/28 10:01:38;202456.00;0.67;350.15;67015.00;0.22;116.60;;;;;19.80;1.00;;;;;;2267188;61;1265;-82
2021/05/28 10:04:06;204160.00;0.68;353.08;87625.00;0.29;152.21;;;;;20.50;1.00;;;;;;2266928;61;1327;-82
2021/05/28 10:06:35;164096.00;0.55;284.10;72906.00;0.24;126.78;;;;;20.90;1.00;;;;;;2267439;61;1161;-83
2021/05/28 10:09:04;170167.00;0.57;294.55;79679.00;0.27;138.48;;;;;21.40;1.00;;;;;;2267430;61;1208;-83
2021/05/28 10:11:32;167533.00;0.56;290.02;75287.00;0.25;130.90;;;;;22.00;1.00;;;;;;2267835;61;1137;-82
2021/05/28 10:13:59;334563.00;1.12;577.33;77375.00;0.26;134.50;;;;;22.40;1.00;;;;;;2267780;61;1258;-83
2021/05/28 10:16:26;196815.00;0.66;340.44;80540.00;0.27;139.97;;;;;22.10;1.00;;;;;;2267058;61;1973;-83
2021/05/28 10:18:55;173632.00;0.58;300.52;72074.00;0.24;125.34;;;;;21.10;1.00;;;;;;2267376;61;1143;-82